UAE52P OMDB-LOWW
Flight info
| Callsign | UAE52P |
|---|---|
| Flight time | 6h 18m |
| Altitude | 34000 |
| Route | ANVIX7F ANVIX R401 GIDIS G783 VAVIM T636 KULMI Q624 ESROM M318 GOLGU M550 RIBOT DCT MIGMA DCT SITUK M321 IVONU Z710 GAS G662 HIL T540 ENABI L550 NOVPA J981 DATOK L550 GENIV L324 LAKTO/N0479F360 DCT OTHON DCT VAXOS DCT RDS UL609 MES DCT EVIVI DCT OKANA DCT NEPOS DCT PARAK DCT BALUX DCT TORNO DCT NATEX NATEX2W |
| Aircraft | B77W/H-VGDW/C |
Departure
| Time | 2026-04-25 05:35 |
|---|---|
| Airport | Dubai International Airport (OMDB) |
Arrival
| Time | 2026-04-25 11:54 |
|---|---|
| Airport | Vienna International Airport (LOWW) |
| Time | Latitude | Longitude | Altitude | Speed | Heading |
|---|---|---|---|---|---|
| 2026-04-25 05:15 | 25.24621 | 55.36366 | 47 ft | 0 kts | 31° |
| 2026-04-25 05:26 | 25.24616 | 55.36363 | 48 ft | 4 kts | 30° |
| 2026-04-25 05:27 | 25.24592 | 55.36349 | 48 ft | 4 kts | 26° |
| 2026-04-25 05:27 | 25.24572 | 55.36337 | 48 ft | 4 kts | 54° |
| 2026-04-25 05:27 | 25.24563 | 55.36318 | 48 ft | 4 kts | 80° |
| 2026-04-25 05:27 | 25.24563 | 55.36297 | 48 ft | 4 kts | 117° |
| 2026-04-25 05:28 | 25.24577 | 55.36273 | 48 ft | 3 kts | 122° |
| 2026-04-25 05:28 | 25.24579 | 55.36269 | 48 ft | 0 kts | 121° |
| 2026-04-25 05:30 | 25.24564 | 55.36295 | 48 ft | 12 kts | 121° |
| 2026-04-25 05:31 | 25.24505 | 55.36402 | 48 ft | 18 kts | 121° |
| 2026-04-25 05:31 | 25.24448 | 55.36532 | 48 ft | 19 kts | 95° |
| 2026-04-25 05:31 | 25.24505 | 55.36668 | 48 ft | 21 kts | 37° |
| 2026-04-25 05:31 | 25.24626 | 55.36753 | 48 ft | 20 kts | 32° |
| 2026-04-25 05:32 | 25.24743 | 55.36832 | 48 ft | 19 kts | 31° |
| 2026-04-25 05:32 | 25.24803 | 55.36927 | 48 ft | 17 kts | 107° |
| 2026-04-25 05:32 | 25.24743 | 55.37052 | 48 ft | 18 kts | 121° |
| 2026-04-25 05:32 | 25.24664 | 55.37191 | 48 ft | 26 kts | 121° |
| 2026-04-25 05:33 | 25.24575 | 55.37352 | 48 ft | 24 kts | 121° |
| 2026-04-25 05:33 | 25.24493 | 55.37502 | 48 ft | 22 kts | 121° |
| 2026-04-25 05:33 | 25.24407 | 55.37658 | 48 ft | 19 kts | 121° |
| 2026-04-25 05:33 | 25.24436 | 55.37779 | 48 ft | 21 kts | 32° |
| 2026-04-25 05:34 | 25.24553 | 55.37866 | 48 ft | 20 kts | 34° |
| 2026-04-25 05:34 | 25.24664 | 55.37949 | 48 ft | 19 kts | 34° |
| 2026-04-25 05:34 | 25.24770 | 55.38020 | 48 ft | 14 kts | 17° |
| 2026-04-25 05:34 | 25.24854 | 55.37947 | 48 ft | 26 kts | 301° |
| 2026-04-25 05:35 | 25.25064 | 55.37564 | 48 ft | 92 kts | 302° |
| 2026-04-25 05:35 | 25.25515 | 55.36754 | 48 ft | 154 kts | 301° |
| 2026-04-25 05:35 | 25.26161 | 55.35590 | 136 ft | 193 kts | 301° |
| 2026-04-25 05:35 | 25.26870 | 55.34307 | 755 ft | 194 kts | 301° |
| 2026-04-25 05:36 | 25.27577 | 55.33034 | 1446 ft | 197 kts | 301° |
| 2026-04-25 05:36 | 25.28055 | 55.32173 | 1785 ft | 199 kts | 301° |
| 2026-04-25 05:36 | 25.28780 | 55.30868 | 2315 ft | 200 kts | 301° |
| 2026-04-25 05:36 | 25.29411 | 55.29500 | 2778 ft | 202 kts | 286° |
| 2026-04-25 05:37 | 25.29417 | 55.27969 | 3209 ft | 204 kts | 253° |
| 2026-04-25 05:37 | 25.28740 | 55.26597 | 3724 ft | 203 kts | 240° |
| 2026-04-25 05:37 | 25.28015 | 55.25245 | 4192 ft | 206 kts | 242° |
| 2026-04-25 05:37 | 25.27316 | 55.23852 | 4654 ft | 208 kts | 242° |
| 2026-04-25 05:38 | 25.26628 | 55.22451 | 5119 ft | 208 kts | 242° |
| 2026-04-25 05:38 | 25.25945 | 55.21039 | 5556 ft | 211 kts | 243° |
| 2026-04-25 05:38 | 25.25270 | 55.19528 | 5753 ft | 228 kts | 245° |
| 2026-04-25 05:38 | 25.24540 | 55.17918 | 6062 ft | 240 kts | 238° |
| 2026-04-25 05:39 | 25.23347 | 55.16588 | 6339 ft | 253 kts | 211° |
| 2026-04-25 05:39 | 25.21647 | 55.16046 | 6779 ft | 261 kts | 183° |
| 2026-04-25 05:39 | 25.19872 | 55.16465 | 7265 ft | 266 kts | 155° |
| 2026-04-25 05:39 | 25.18417 | 55.17741 | 7771 ft | 271 kts | 133° |
| 2026-04-25 05:40 | 25.17326 | 55.19458 | 8064 ft | 285 kts | 122° |
| 2026-04-25 05:40 | 25.16336 | 55.21439 | 8431 ft | 295 kts | 118° |
| 2026-04-25 05:40 | 25.15400 | 55.23458 | 8886 ft | 303 kts | 118° |
| 2026-04-25 05:40 | 25.14436 | 55.25526 | 9532 ft | 303 kts | 118° |
| 2026-04-25 05:41 | 25.13459 | 55.27625 | 10174 ft | 304 kts | 118° |
| 2026-04-25 05:41 | 25.12481 | 55.29668 | 10785 ft | 306 kts | 119° |
| 2026-04-25 05:41 | 25.11470 | 55.31749 | 11446 ft | 309 kts | 119° |
| 2026-04-25 05:41 | 25.10460 | 55.33840 | 12177 ft | 309 kts | 118° |
| 2026-04-25 05:42 | 25.09532 | 55.35990 | 12876 ft | 313 kts | 115° |
| 2026-04-25 05:42 | 25.08651 | 55.38206 | 13506 ft | 318 kts | 115° |
| 2026-04-25 05:42 | 25.07757 | 55.40454 | 14164 ft | 321 kts | 115° |
| 2026-04-25 05:42 | 25.06859 | 55.42731 | 14789 ft | 327 kts | 114° |
| 2026-04-25 05:43 | 25.05966 | 55.45065 | 15102 ft | 343 kts | 114° |
| 2026-04-25 05:43 | 25.05000 | 55.47586 | 15352 ft | 362 kts | 114° |
| 2026-04-25 05:43 | 25.03989 | 55.50209 | 15538 ft | 380 kts | 114° |
| 2026-04-25 05:43 | 25.02928 | 55.52954 | 15767 ft | 397 kts | 114° |
| 2026-04-25 05:44 | 25.01762 | 55.55764 | 16090 ft | 409 kts | 118° |
| 2026-04-25 05:44 | 25.00379 | 55.58541 | 16514 ft | 417 kts | 121° |
| 2026-04-25 05:44 | 24.98858 | 55.61290 | 17015 ft | 423 kts | 123° |
| 2026-04-25 05:44 | 24.97303 | 55.64061 | 17553 ft | 428 kts | 122° |
| 2026-04-25 05:45 | 24.95770 | 55.66880 | 18098 ft | 432 kts | 122° |
| 2026-04-25 05:45 | 24.94226 | 55.69737 | 18651 ft | 435 kts | 123° |
| 2026-04-25 05:45 | 24.92564 | 55.72531 | 19216 ft | 437 kts | 126° |
| 2026-04-25 05:45 | 24.90750 | 55.75229 | 19691 ft | 441 kts | 129° |
| 2026-04-25 05:46 | 24.88859 | 55.77914 | 20167 ft | 445 kts | 129° |
| 2026-04-25 05:46 | 24.86997 | 55.80658 | 20663 ft | 448 kts | 128° |
| 2026-04-25 05:46 | 24.85157 | 55.83444 | 21146 ft | 452 kts | 128° |
| 2026-04-25 05:46 | 24.83309 | 55.86259 | 21600 ft | 455 kts | 128° |
| 2026-04-25 05:47 | 24.81378 | 55.89026 | 22014 ft | 456 kts | 133° |
| 2026-04-25 05:47 | 24.79013 | 55.91328 | 22351 ft | 455 kts | 149° |
| 2026-04-25 05:47 | 24.76155 | 55.92792 | 22750 ft | 453 kts | 165° |
| 2026-04-25 05:47 | 24.73066 | 55.93442 | 23167 ft | 452 kts | 176° |
| 2026-04-25 05:48 | 24.69930 | 55.93644 | 23584 ft | 453 kts | 181° |
| 2026-04-25 05:48 | 24.66769 | 55.93579 | 23997 ft | 454 kts | 185° |
| 2026-04-25 05:48 | 24.63632 | 55.93247 | 24337 ft | 454 kts | 193° |
| 2026-04-25 05:48 | 24.60625 | 55.92219 | 24647 ft | 454 kts | 206° |
| 2026-04-25 05:49 | 24.57879 | 55.90514 | 25012 ft | 454 kts | 215° |
| 2026-04-25 05:49 | 24.55307 | 55.88501 | 25371 ft | 456 kts | 218° |
| 2026-04-25 05:49 | 24.52797 | 55.86399 | 25768 ft | 457 kts | 220° |
| 2026-04-25 05:49 | 24.50353 | 55.84129 | 26130 ft | 459 kts | 223° |
| 2026-04-25 05:50 | 24.48006 | 55.81819 | 26485 ft | 461 kts | 223° |
| 2026-04-25 05:50 | 24.45567 | 55.79432 | 26839 ft | 464 kts | 223° |
| 2026-04-25 05:50 | 24.43135 | 55.77090 | 27190 ft | 466 kts | 223° |
| 2026-04-25 05:50 | 24.40687 | 55.74741 | 27536 ft | 469 kts | 223° |
| 2026-04-25 05:51 | 24.38228 | 55.72383 | 27864 ft | 471 kts | 223° |
| 2026-04-25 05:51 | 24.35755 | 55.70005 | 28158 ft | 474 kts | 223° |
| 2026-04-25 05:51 | 24.33272 | 55.67624 | 28479 ft | 476 kts | 223° |
| 2026-04-25 05:51 | 24.30775 | 55.65232 | 28802 ft | 478 kts | 223° |
| 2026-04-25 05:52 | 24.28217 | 55.62884 | 29059 ft | 481 kts | 219° |
| 2026-04-25 05:52 | 24.25471 | 55.60777 | 29338 ft | 484 kts | 215° |
| 2026-04-25 05:52 | 24.22594 | 55.58842 | 29672 ft | 486 kts | 212° |
| 2026-04-25 05:52 | 24.19637 | 55.57050 | 30121 ft | 485 kts | 210° |
| 2026-04-25 05:53 | 24.16627 | 55.55390 | 30556 ft | 483 kts | 208° |
| 2026-04-25 05:53 | 24.13593 | 55.53812 | 30930 ft | 484 kts | 207° |
| 2026-04-25 05:53 | 24.10545 | 55.52242 | 31283 ft | 484 kts | 208° |
| 2026-04-25 05:53 | 24.07515 | 55.50648 | 31646 ft | 483 kts | 208° |
| 2026-04-25 05:54 | 24.04496 | 55.49035 | 31986 ft | 483 kts | 209° |
| 2026-04-25 05:54 | 24.01486 | 55.47418 | 32343 ft | 482 kts | 209° |
| 2026-04-25 05:54 | 23.95470 | 55.44159 | 32902 ft | 483 kts | 209° |
| 2026-04-25 05:55 | 23.92459 | 55.42533 | 33227 ft | 482 kts | 209° |
| 2026-04-25 05:55 | 23.89450 | 55.40913 | 33526 ft | 482 kts | 209° |
| 2026-04-25 05:55 | 23.86439 | 55.39295 | 33828 ft | 482 kts | 210° |
| 2026-04-25 05:55 | 23.83440 | 55.37684 | 33966 ft | 482 kts | 210° |
| 2026-04-25 05:56 | 23.77399 | 55.34441 | 33974 ft | 486 kts | 210° |
| 2026-04-25 05:56 | 23.71810 | 55.30430 | 33973 ft | 481 kts | 231° |
| 2026-04-25 05:57 | 23.69902 | 55.27457 | 33973 ft | 478 kts | 246° |
| 2026-04-25 05:57 | 23.68817 | 55.24058 | 33975 ft | 473 kts | 261° |
| 2026-04-25 05:57 | 23.68330 | 55.16974 | 33972 ft | 466 kts | 269° |
| 2026-04-25 05:58 | 23.67957 | 55.09922 | 33967 ft | 465 kts | 266° |
| 2026-04-25 05:58 | 23.67284 | 55.02948 | 33965 ft | 466 kts | 264° |
| 2026-04-25 05:59 | 23.66423 | 54.95943 | 33965 ft | 467 kts | 263° |
| 2026-04-25 05:59 | 23.65564 | 54.88923 | 33960 ft | 466 kts | 264° |
| 2026-04-25 06:00 | 23.64716 | 54.81912 | 33959 ft | 466 kts | 263° |
| 2026-04-25 06:00 | 23.63857 | 54.74904 | 33957 ft | 466 kts | 263° |
| 2026-04-25 06:01 | 23.62993 | 54.67908 | 33955 ft | 466 kts | 263° |
| 2026-04-25 06:01 | 23.62124 | 54.60909 | 33951 ft | 466 kts | 263° |
| 2026-04-25 06:02 | 23.61252 | 54.53914 | 33948 ft | 466 kts | 263° |
| 2026-04-25 06:02 | 23.60375 | 54.46914 | 33951 ft | 465 kts | 263° |
| 2026-04-25 06:03 | 23.59497 | 54.39925 | 33967 ft | 465 kts | 263° |
| 2026-04-25 06:03 | 23.58618 | 54.32954 | 33967 ft | 465 kts | 263° |
| 2026-04-25 06:04 | 23.57733 | 54.25956 | 33968 ft | 465 kts | 263° |
| 2026-04-25 06:04 | 23.56846 | 54.18977 | 33967 ft | 464 kts | 263° |
| 2026-04-25 06:05 | 23.55957 | 54.12008 | 33969 ft | 464 kts | 263° |
| 2026-04-25 06:05 | 23.55067 | 54.05050 | 33968 ft | 464 kts | 263° |
| 2026-04-25 06:06 | 23.54172 | 53.98080 | 33969 ft | 464 kts | 263° |
| 2026-04-25 06:06 | 23.53275 | 53.91121 | 33969 ft | 464 kts | 263° |
| 2026-04-25 06:07 | 23.52374 | 53.84158 | 33970 ft | 464 kts | 262° |
| 2026-04-25 06:07 | 23.51471 | 53.77200 | 33970 ft | 464 kts | 262° |
| 2026-04-25 06:08 | 23.50564 | 53.70239 | 33970 ft | 464 kts | 262° |
| 2026-04-25 06:08 | 23.49655 | 53.63282 | 33972 ft | 464 kts | 262° |
| 2026-04-25 06:09 | 23.48740 | 53.56312 | 33972 ft | 466 kts | 262° |
| 2026-04-25 06:09 | 23.47821 | 53.49327 | 33973 ft | 466 kts | 262° |
| 2026-04-25 06:10 | 23.46906 | 53.42398 | 33974 ft | 465 kts | 262° |
| 2026-04-25 06:10 | 23.45982 | 53.35430 | 33974 ft | 465 kts | 262° |
| 2026-04-25 06:11 | 23.45058 | 53.28415 | 33975 ft | 465 kts | 263° |
| 2026-04-25 06:11 | 23.44147 | 53.21497 | 33975 ft | 464 kts | 262° |
| 2026-04-25 06:12 | 23.43210 | 53.14552 | 33978 ft | 464 kts | 262° |
| 2026-04-25 06:12 | 23.42263 | 53.07557 | 33977 ft | 464 kts | 262° |
| 2026-04-25 06:13 | 23.41326 | 53.00662 | 33978 ft | 463 kts | 262° |
| 2026-04-25 06:14 | 23.38230 | 52.90745 | 33979 ft | 465 kts | 244° |
| 2026-04-25 06:14 | 23.34997 | 52.84583 | 33981 ft | 466 kts | 241° |
| 2026-04-25 06:15 | 23.31779 | 52.78466 | 33980 ft | 466 kts | 243° |
| 2026-04-25 06:15 | 23.28641 | 52.72362 | 33982 ft | 466 kts | 243° |
| 2026-04-25 06:16 | 23.25468 | 52.66214 | 33973 ft | 466 kts | 242° |
| 2026-04-25 06:16 | 23.22294 | 52.60072 | 33970 ft | 465 kts | 243° |
| 2026-04-25 06:17 | 23.19133 | 52.53953 | 33971 ft | 464 kts | 243° |
| 2026-04-25 06:17 | 23.16570 | 52.47536 | 33970 ft | 463 kts | 253° |
| 2026-04-25 06:18 | 23.14594 | 52.40888 | 33986 ft | 462 kts | 253° |
| 2026-04-25 06:18 | 23.12505 | 52.34280 | 33989 ft | 462 kts | 252° |
| 2026-04-25 06:19 | 23.10381 | 52.27638 | 33988 ft | 462 kts | 252° |
| 2026-04-25 06:19 | 23.08274 | 52.21047 | 33990 ft | 462 kts | 252° |
| 2026-04-25 06:20 | 23.06185 | 52.14515 | 33990 ft | 461 kts | 252° |
| 2026-04-25 06:20 | 23.04418 | 52.08995 | 33990 ft | 461 kts | 252° |
| 2026-04-25 06:21 | 23.01988 | 52.01348 | 33991 ft | 461 kts | 252° |
| 2026-04-25 06:21 | 23.00239 | 51.95840 | 33991 ft | 460 kts | 252° |
| 2026-04-25 06:22 | 22.98143 | 51.89286 | 33992 ft | 459 kts | 252° |
| 2026-04-25 06:22 | 22.96046 | 51.82750 | 33993 ft | 459 kts | 252° |
| 2026-04-25 06:23 | 22.93960 | 51.76212 | 33993 ft | 459 kts | 252° |
| 2026-04-25 06:23 | 22.91859 | 51.69669 | 33994 ft | 459 kts | 252° |
| 2026-04-25 06:24 | 22.89748 | 51.63140 | 33994 ft | 459 kts | 252° |
| 2026-04-25 06:24 | 22.87629 | 51.56601 | 34000 ft | 459 kts | 252° |
| 2026-04-25 06:25 | 22.85533 | 51.50077 | 33988 ft | 458 kts | 254° |
| 2026-04-25 06:25 | 22.84468 | 51.43286 | 33992 ft | 458 kts | 268° |
| 2026-04-25 06:26 | 22.84697 | 51.36429 | 33989 ft | 458 kts | 274° |
| 2026-04-25 06:26 | 22.85235 | 51.29554 | 33991 ft | 458 kts | 274° |
| 2026-04-25 06:27 | 22.85713 | 51.22674 | 34013 ft | 457 kts | 273° |
| 2026-04-25 06:27 | 22.86145 | 51.15799 | 34013 ft | 457 kts | 273° |
| 2026-04-25 06:28 | 22.86560 | 51.08933 | 34014 ft | 457 kts | 273° |
| 2026-04-25 06:28 | 22.87000 | 51.02056 | 34013 ft | 457 kts | 273° |
| 2026-04-25 06:29 | 22.87424 | 50.95193 | 34015 ft | 457 kts | 273° |
| 2026-04-25 06:29 | 22.87838 | 50.88308 | 34012 ft | 457 kts | 273° |
| 2026-04-25 06:30 | 22.88244 | 50.81440 | 34015 ft | 457 kts | 273° |
| 2026-04-25 06:30 | 22.88646 | 50.74556 | 34015 ft | 457 kts | 273° |
| 2026-04-25 06:31 | 22.89045 | 50.67676 | 34015 ft | 457 kts | 273° |
| 2026-04-25 06:31 | 22.89441 | 50.60790 | 34016 ft | 457 kts | 273° |
| 2026-04-25 06:32 | 22.89834 | 50.53914 | 34015 ft | 457 kts | 273° |
| 2026-04-25 06:32 | 22.90223 | 50.47042 | 34016 ft | 456 kts | 273° |
| 2026-04-25 06:33 | 22.90609 | 50.40179 | 34015 ft | 456 kts | 272° |
| 2026-04-25 06:33 | 22.90992 | 50.33317 | 34017 ft | 456 kts | 272° |
| 2026-04-25 06:34 | 22.91372 | 50.26442 | 34016 ft | 456 kts | 272° |
| 2026-04-25 06:34 | 22.91748 | 50.19595 | 34018 ft | 456 kts | 272° |
| 2026-04-25 06:35 | 22.92123 | 50.12706 | 34017 ft | 456 kts | 272° |
| 2026-04-25 06:35 | 22.92495 | 50.05834 | 34018 ft | 456 kts | 272° |
| 2026-04-25 06:36 | 22.92863 | 49.98963 | 34018 ft | 456 kts | 272° |
| 2026-04-25 06:36 | 22.93228 | 49.92101 | 34019 ft | 455 kts | 272° |
| 2026-04-25 06:37 | 22.93589 | 49.85259 | 34018 ft | 454 kts | 272° |
| 2026-04-25 06:37 | 22.93945 | 49.78456 | 34019 ft | 454 kts | 272° |
| 2026-04-25 06:38 | 22.94302 | 49.71570 | 34019 ft | 455 kts | 272° |
| 2026-04-25 06:38 | 22.94652 | 49.64759 | 34020 ft | 455 kts | 272° |
| 2026-04-25 06:39 | 22.95004 | 49.57868 | 34033 ft | 455 kts | 272° |
| 2026-04-25 06:39 | 22.95349 | 49.51057 | 34036 ft | 455 kts | 272° |
| 2026-04-25 06:40 | 22.95692 | 49.44212 | 34041 ft | 455 kts | 272° |
| 2026-04-25 06:40 | 22.96032 | 49.37368 | 34042 ft | 454 kts | 272° |
| 2026-04-25 06:41 | 22.96369 | 49.30526 | 34043 ft | 454 kts | 272° |
| 2026-04-25 06:41 | 22.96705 | 49.23650 | 34043 ft | 454 kts | 272° |
| 2026-04-25 06:42 | 22.97035 | 49.16854 | 34044 ft | 454 kts | 272° |
| 2026-04-25 06:42 | 22.97363 | 49.10021 | 34047 ft | 454 kts | 272° |
| 2026-04-25 06:43 | 22.97688 | 49.03181 | 34044 ft | 453 kts | 271° |
| 2026-04-25 06:43 | 22.98010 | 48.96354 | 34045 ft | 453 kts | 271° |
| 2026-04-25 06:44 | 22.98328 | 48.89531 | 34046 ft | 453 kts | 271° |
| 2026-04-25 06:44 | 22.98644 | 48.82703 | 34045 ft | 453 kts | 271° |
| 2026-04-25 06:45 | 22.98958 | 48.75870 | 34048 ft | 453 kts | 271° |
| 2026-04-25 06:45 | 22.99268 | 48.69043 | 34048 ft | 452 kts | 271° |
| 2026-04-25 06:46 | 22.99574 | 48.62235 | 34050 ft | 452 kts | 271° |
| 2026-04-25 06:46 | 22.99878 | 48.55420 | 34049 ft | 452 kts | 271° |
| 2026-04-25 06:47 | 23.00179 | 48.48596 | 34050 ft | 452 kts | 271° |
| 2026-04-25 06:47 | 23.00477 | 48.41778 | 34050 ft | 452 kts | 271° |
| 2026-04-25 06:48 | 23.00772 | 48.34959 | 34050 ft | 452 kts | 271° |
| 2026-04-25 06:48 | 23.01064 | 48.28144 | 34051 ft | 451 kts | 271° |
| 2026-04-25 06:49 | 23.01352 | 48.21348 | 34050 ft | 451 kts | 271° |
| 2026-04-25 06:49 | 23.01644 | 48.14536 | 34052 ft | 451 kts | 271° |
| 2026-04-25 06:50 | 23.01942 | 48.07733 | 34051 ft | 452 kts | 271° |
| 2026-04-25 06:50 | 23.02217 | 48.00920 | 34052 ft | 452 kts | 271° |
| 2026-04-25 06:51 | 23.02485 | 47.94165 | 34051 ft | 451 kts | 271° |
| 2026-04-25 06:51 | 23.02753 | 47.87377 | 34052 ft | 450 kts | 271° |
| 2026-04-25 06:52 | 23.04140 | 47.80808 | 34054 ft | 457 kts | 296° |
| 2026-04-25 06:52 | 23.06060 | 47.78037 | 34051 ft | 465 kts | 311° |
| 2026-04-25 06:52 | 23.08656 | 47.75906 | 34045 ft | 473 kts | 326° |
| 2026-04-25 06:53 | 23.14739 | 47.73008 | 34047 ft | 481 kts | 328° |
| 2026-04-25 06:53 | 23.20587 | 47.69391 | 34050 ft | 486 kts | 322° |
| 2026-04-25 06:54 | 23.26264 | 47.65440 | 34054 ft | 482 kts | 322° |
| 2026-04-25 06:54 | 23.31926 | 47.61579 | 34052 ft | 479 kts | 322° |
| 2026-04-25 06:55 | 23.37577 | 47.57742 | 34052 ft | 479 kts | 322° |
| 2026-04-25 06:55 | 23.43235 | 47.53899 | 34065 ft | 480 kts | 322° |
| 2026-04-25 06:56 | 23.48907 | 47.50045 | 34066 ft | 480 kts | 322° |
| 2026-04-25 06:56 | 23.54574 | 47.46198 | 34063 ft | 480 kts | 322° |
| 2026-04-25 06:57 | 23.60205 | 47.42366 | 34061 ft | 480 kts | 322° |
| 2026-04-25 06:57 | 23.65873 | 47.38504 | 34063 ft | 481 kts | 322° |
| 2026-04-25 06:58 | 23.71547 | 47.34635 | 34060 ft | 481 kts | 322° |
| 2026-04-25 06:58 | 23.77257 | 47.30744 | 34062 ft | 481 kts | 323° |
| 2026-04-25 06:59 | 23.82896 | 47.26909 | 34060 ft | 481 kts | 322° |
| 2026-04-25 06:59 | 23.88570 | 47.23049 | 34062 ft | 481 kts | 322° |
| 2026-04-25 07:00 | 23.94241 | 47.19169 | 34062 ft | 481 kts | 322° |
| 2026-04-25 07:00 | 23.99903 | 47.15286 | 34064 ft | 481 kts | 322° |
| 2026-04-25 07:01 | 24.05569 | 47.11397 | 34067 ft | 482 kts | 322° |
| 2026-04-25 07:01 | 24.11288 | 47.07556 | 34123 ft | 484 kts | 325° |
| 2026-04-25 07:02 | 24.17393 | 47.04362 | 34144 ft | 488 kts | 331° |
| 2026-04-25 07:02 | 24.23705 | 47.01561 | 34142 ft | 490 kts | 332° |
| 2026-04-25 07:03 | 24.30013 | 46.98717 | 34143 ft | 491 kts | 331° |
| 2026-04-25 07:03 | 24.36311 | 46.95799 | 34141 ft | 491 kts | 331° |
| 2026-04-25 07:04 | 24.42595 | 46.92868 | 34139 ft | 490 kts | 331° |
| 2026-04-25 07:04 | 24.48871 | 46.89951 | 34141 ft | 490 kts | 331° |
| 2026-04-25 07:05 | 24.55155 | 46.87018 | 34138 ft | 491 kts | 331° |
| 2026-04-25 07:05 | 24.61448 | 46.84074 | 34140 ft | 491 kts | 331° |
| 2026-04-25 07:06 | 24.67735 | 46.81129 | 34139 ft | 491 kts | 331° |
| 2026-04-25 07:06 | 24.72964 | 46.78687 | 34140 ft | 491 kts | 331° |
| 2026-04-25 07:07 | 24.79256 | 46.75733 | 34142 ft | 492 kts | 330° |
| 2026-04-25 07:07 | 24.85549 | 46.72772 | 34141 ft | 492 kts | 330° |
| 2026-04-25 07:08 | 24.91844 | 46.69803 | 34140 ft | 491 kts | 330° |
| 2026-04-25 07:08 | 24.94808 | 46.68029 | 34144 ft | 480 kts | 317° |
| 2026-04-25 07:08 | 24.97198 | 46.65534 | 34139 ft | 470 kts | 302° |
| 2026-04-25 07:08 | 24.98829 | 46.62461 | 34141 ft | 462 kts | 286° |
| 2026-04-25 07:09 | 24.99599 | 46.59067 | 34145 ft | 454 kts | 272° |
| 2026-04-25 07:09 | 24.99646 | 46.52203 | 34136 ft | 445 kts | 267° |
| 2026-04-25 07:10 | 24.99785 | 46.45399 | 34139 ft | 444 kts | 270° |
| 2026-04-25 07:10 | 25.00234 | 46.38599 | 34138 ft | 445 kts | 271° |
| 2026-04-25 07:11 | 25.00756 | 46.31794 | 34137 ft | 446 kts | 271° |
| 2026-04-25 07:11 | 25.01298 | 46.24982 | 34133 ft | 446 kts | 271° |
| 2026-04-25 07:12 | 25.01838 | 46.18167 | 34132 ft | 446 kts | 271° |
| 2026-04-25 07:12 | 25.02622 | 46.07948 | 34128 ft | 446 kts | 271° |
| 2026-04-25 07:13 | 25.03147 | 46.01133 | 34125 ft | 446 kts | 271° |
| 2026-04-25 07:13 | 25.03675 | 45.94315 | 34122 ft | 446 kts | 271° |
| 2026-04-25 07:14 | 25.04177 | 45.87539 | 34117 ft | 446 kts | 270° |
| 2026-04-25 07:14 | 25.04676 | 45.80716 | 34114 ft | 446 kts | 270° |
| 2026-04-25 07:15 | 25.05173 | 45.73897 | 34110 ft | 447 kts | 270° |
| 2026-04-25 07:15 | 25.06118 | 45.67120 | 34105 ft | 451 kts | 281° |
| 2026-04-25 07:16 | 25.08443 | 45.60648 | 34103 ft | 458 kts | 289° |
| 2026-04-25 07:16 | 25.11289 | 45.54316 | 34097 ft | 462 kts | 290° |
| 2026-04-25 07:17 | 25.14125 | 45.47961 | 34095 ft | 462 kts | 290° |
| 2026-04-25 07:17 | 25.16913 | 45.41580 | 34090 ft | 461 kts | 290° |
| 2026-04-25 07:18 | 25.19685 | 45.35196 | 34088 ft | 461 kts | 289° |
| 2026-04-25 07:18 | 25.22471 | 45.28821 | 34083 ft | 461 kts | 290° |
| 2026-04-25 07:19 | 25.25252 | 45.22443 | 34082 ft | 461 kts | 289° |
| 2026-04-25 07:19 | 25.28024 | 45.16048 | 34077 ft | 462 kts | 289° |
| 2026-04-25 07:20 | 25.30793 | 45.09644 | 34077 ft | 462 kts | 289° |
| 2026-04-25 07:20 | 25.33556 | 45.03241 | 34073 ft | 462 kts | 289° |
| 2026-04-25 07:21 | 25.36321 | 44.96826 | 34072 ft | 462 kts | 289° |
| 2026-04-25 07:21 | 25.39083 | 44.90405 | 34069 ft | 462 kts | 289° |
| 2026-04-25 07:22 | 25.41863 | 44.83987 | 34071 ft | 463 kts | 289° |
| 2026-04-25 07:22 | 25.44622 | 44.77553 | 34066 ft | 463 kts | 289° |
| 2026-04-25 07:23 | 25.47374 | 44.71108 | 34065 ft | 463 kts | 288° |
| 2026-04-25 07:23 | 25.50125 | 44.64658 | 34064 ft | 463 kts | 288° |
| 2026-04-25 07:24 | 25.53121 | 44.58330 | 34062 ft | 469 kts | 296° |
| 2026-04-25 07:24 | 25.57429 | 44.52783 | 34064 ft | 482 kts | 308° |
| 2026-04-25 07:25 | 25.62440 | 44.47749 | 34059 ft | 489 kts | 310° |
| 2026-04-25 07:25 | 25.67496 | 44.42676 | 34061 ft | 491 kts | 309° |
| 2026-04-25 07:26 | 25.72497 | 44.37538 | 34058 ft | 490 kts | 309° |
| 2026-04-25 07:26 | 25.77485 | 44.32379 | 34058 ft | 490 kts | 308° |
| 2026-04-25 07:27 | 25.82487 | 44.27230 | 34057 ft | 491 kts | 309° |
| 2026-04-25 07:27 | 25.87483 | 44.22067 | 34056 ft | 491 kts | 308° |
| 2026-04-25 07:28 | 25.92475 | 44.16892 | 34056 ft | 491 kts | 308° |
| 2026-04-25 07:28 | 25.97474 | 44.11701 | 34053 ft | 492 kts | 308° |
| 2026-04-25 07:29 | 26.02473 | 44.06503 | 34052 ft | 492 kts | 308° |
| 2026-04-25 07:29 | 26.07468 | 44.01310 | 34052 ft | 492 kts | 308° |
| 2026-04-25 07:30 | 26.12463 | 43.96121 | 34052 ft | 491 kts | 308° |
| 2026-04-25 07:30 | 26.17445 | 43.90913 | 34053 ft | 491 kts | 308° |
| 2026-04-25 07:31 | 26.22426 | 43.85698 | 34052 ft | 491 kts | 308° |
| 2026-04-25 07:31 | 26.27361 | 43.80505 | 34052 ft | 488 kts | 306° |
| 2026-04-25 07:32 | 26.31548 | 43.74694 | 34055 ft | 478 kts | 296° |
| 2026-04-25 07:32 | 26.35083 | 43.68496 | 34052 ft | 471 kts | 292° |
| 2026-04-25 07:33 | 26.38448 | 43.62243 | 34053 ft | 469 kts | 292° |
| 2026-04-25 07:33 | 26.41823 | 43.56037 | 34052 ft | 468 kts | 292° |
| 2026-04-25 07:34 | 26.45207 | 43.49831 | 34053 ft | 468 kts | 292° |
| 2026-04-25 07:34 | 26.48596 | 43.43637 | 34051 ft | 468 kts | 293° |
| 2026-04-25 07:35 | 26.52004 | 43.37467 | 34051 ft | 466 kts | 292° |
| 2026-04-25 07:35 | 26.55370 | 43.31281 | 34049 ft | 466 kts | 292° |
| 2026-04-25 07:36 | 26.58724 | 43.25098 | 34049 ft | 465 kts | 292° |
| 2026-04-25 07:36 | 26.62069 | 43.18928 | 34048 ft | 464 kts | 292° |
| 2026-04-25 07:37 | 26.65411 | 43.12759 | 34048 ft | 464 kts | 292° |
| 2026-04-25 07:37 | 26.68729 | 43.06634 | 34047 ft | 462 kts | 292° |
| 2026-04-25 07:38 | 26.72049 | 43.00488 | 34044 ft | 462 kts | 292° |
| 2026-04-25 07:38 | 26.75370 | 42.94328 | 34045 ft | 462 kts | 291° |
| 2026-04-25 07:39 | 26.78684 | 42.88174 | 34043 ft | 461 kts | 292° |
| 2026-04-25 07:39 | 26.81989 | 42.82028 | 34044 ft | 460 kts | 292° |
| 2026-04-25 07:40 | 26.85313 | 42.75902 | 34042 ft | 460 kts | 292° |
| 2026-04-25 07:40 | 26.88623 | 42.69765 | 34043 ft | 460 kts | 291° |
| 2026-04-25 07:41 | 26.91924 | 42.63623 | 34042 ft | 460 kts | 291° |
| 2026-04-25 07:41 | 26.95240 | 42.57483 | 34044 ft | 460 kts | 291° |
| 2026-04-25 07:42 | 26.98523 | 42.51343 | 34042 ft | 459 kts | 291° |
| 2026-04-25 07:42 | 27.01789 | 42.45217 | 34045 ft | 458 kts | 291° |
| 2026-04-25 07:43 | 27.05061 | 42.39073 | 34044 ft | 458 kts | 291° |
| 2026-04-25 07:43 | 27.08334 | 42.32930 | 34046 ft | 458 kts | 291° |
| 2026-04-25 07:44 | 27.11601 | 42.26784 | 34046 ft | 458 kts | 291° |
| 2026-04-25 07:44 | 27.14858 | 42.20645 | 34045 ft | 458 kts | 291° |
| 2026-04-25 07:45 | 27.18123 | 42.14480 | 34051 ft | 458 kts | 291° |
| 2026-04-25 07:45 | 27.21377 | 42.08327 | 34050 ft | 458 kts | 291° |
| 2026-04-25 07:46 | 27.24630 | 42.02167 | 34049 ft | 458 kts | 291° |
| 2026-04-25 07:46 | 27.27905 | 41.96031 | 34052 ft | 458 kts | 292° |
| 2026-04-25 07:47 | 27.31165 | 41.89898 | 34052 ft | 456 kts | 291° |
| 2026-04-25 07:47 | 27.34397 | 41.83753 | 34051 ft | 457 kts | 291° |
| 2026-04-25 07:48 | 27.37636 | 41.77583 | 34052 ft | 458 kts | 291° |
| 2026-04-25 07:48 | 27.40875 | 41.71410 | 34054 ft | 458 kts | 291° |
| 2026-04-25 07:49 | 27.44136 | 41.65241 | 34052 ft | 459 kts | 292° |
| 2026-04-25 07:49 | 27.47550 | 41.59163 | 34054 ft | 459 kts | 293° |
| 2026-04-25 07:50 | 27.50952 | 41.53083 | 34052 ft | 459 kts | 293° |
| 2026-04-25 07:50 | 27.54329 | 41.46998 | 34053 ft | 458 kts | 293° |
| 2026-04-25 07:51 | 27.57706 | 41.40897 | 34051 ft | 459 kts | 293° |
| 2026-04-25 07:51 | 27.60509 | 41.35825 | 34048 ft | 459 kts | 293° |
| 2026-04-25 07:52 | 27.63926 | 41.29736 | 34050 ft | 459 kts | 293° |
| 2026-04-25 07:52 | 27.67306 | 41.23626 | 34048 ft | 459 kts | 293° |
| 2026-04-25 07:53 | 27.70674 | 41.17502 | 34047 ft | 459 kts | 293° |
| 2026-04-25 07:53 | 27.74032 | 41.11387 | 34045 ft | 458 kts | 293° |
| 2026-04-25 07:54 | 27.77391 | 41.05273 | 34044 ft | 459 kts | 293° |
| 2026-04-25 07:54 | 27.80754 | 40.99141 | 34042 ft | 459 kts | 293° |
| 2026-04-25 07:55 | 27.84106 | 40.93015 | 34043 ft | 458 kts | 293° |
| 2026-04-25 07:55 | 27.87454 | 40.86883 | 34040 ft | 458 kts | 293° |
| 2026-04-25 07:56 | 27.90796 | 40.80751 | 34040 ft | 459 kts | 293° |
| 2026-04-25 07:56 | 27.94141 | 40.74604 | 34036 ft | 458 kts | 293° |
| 2026-04-25 07:57 | 27.97496 | 40.68470 | 34036 ft | 459 kts | 294° |
| 2026-04-25 07:57 | 28.00835 | 40.62375 | 34033 ft | 459 kts | 294° |
| 2026-04-25 07:58 | 28.04189 | 40.56216 | 34033 ft | 460 kts | 294° |
| 2026-04-25 07:58 | 28.07567 | 40.49996 | 34030 ft | 460 kts | 294° |
| 2026-04-25 07:59 | 28.10886 | 40.43872 | 34029 ft | 460 kts | 294° |
| 2026-04-25 07:59 | 28.14236 | 40.37700 | 34027 ft | 460 kts | 294° |
| 2026-04-25 08:00 | 28.17588 | 40.31529 | 34027 ft | 460 kts | 294° |
| 2026-04-25 08:00 | 28.20924 | 40.25334 | 34026 ft | 460 kts | 294° |
| 2026-04-25 08:01 | 28.24252 | 40.19140 | 34024 ft | 460 kts | 294° |
| 2026-04-25 08:01 | 28.27573 | 40.12954 | 34023 ft | 459 kts | 294° |
| 2026-04-25 08:02 | 28.30991 | 40.06835 | 34024 ft | 461 kts | 298° |
| 2026-04-25 08:02 | 28.34949 | 40.01053 | 34022 ft | 467 kts | 302° |
| 2026-04-25 08:03 | 28.39128 | 39.95383 | 34022 ft | 469 kts | 302° |
| 2026-04-25 08:03 | 28.43258 | 39.89656 | 34023 ft | 468 kts | 301° |
| 2026-04-25 08:04 | 28.47346 | 39.83903 | 34025 ft | 468 kts | 301° |
| 2026-04-25 08:04 | 28.51424 | 39.78138 | 34023 ft | 467 kts | 301° |
| 2026-04-25 08:05 | 28.55515 | 39.72397 | 34024 ft | 468 kts | 301° |
| 2026-04-25 08:05 | 28.59602 | 39.66633 | 34022 ft | 468 kts | 301° |
| 2026-04-25 08:06 | 28.63684 | 39.60851 | 34023 ft | 468 kts | 301° |
| 2026-04-25 08:06 | 28.67765 | 39.55059 | 34021 ft | 469 kts | 301° |
| 2026-04-25 08:07 | 28.71847 | 39.49257 | 34023 ft | 470 kts | 301° |
| 2026-04-25 08:07 | 28.75928 | 39.43446 | 34021 ft | 469 kts | 301° |
| 2026-04-25 08:08 | 28.80005 | 39.37634 | 34022 ft | 470 kts | 302° |
| 2026-04-25 08:08 | 28.84085 | 39.31809 | 34021 ft | 470 kts | 302° |
| 2026-04-25 08:09 | 28.88158 | 39.25987 | 34020 ft | 470 kts | 302° |
| 2026-04-25 08:09 | 28.92244 | 39.20152 | 34016 ft | 470 kts | 302° |
| 2026-04-25 08:10 | 28.96323 | 39.14328 | 34015 ft | 470 kts | 302° |
| 2026-04-25 08:10 | 29.00393 | 39.08473 | 34014 ft | 470 kts | 302° |
| 2026-04-25 08:11 | 29.04433 | 39.02649 | 34012 ft | 470 kts | 302° |
| 2026-04-25 08:11 | 29.08484 | 38.96778 | 34009 ft | 468 kts | 299° |
| 2026-04-25 08:12 | 29.10115 | 38.93619 | 34013 ft | 459 kts | 288° |
| 2026-04-25 08:12 | 29.11099 | 38.90170 | 34009 ft | 455 kts | 276° |
| 2026-04-25 08:12 | 29.11386 | 38.83049 | 34012 ft | 445 kts | 263° |
| 2026-04-25 08:13 | 29.11057 | 38.76031 | 34010 ft | 441 kts | 264° |
| 2026-04-25 08:14 | 29.10970 | 38.65483 | 33998 ft | 443 kts | 266° |
| 2026-04-25 08:14 | 29.10937 | 38.58439 | 33997 ft | 444 kts | 266° |
| 2026-04-25 08:15 | 29.10886 | 38.51391 | 33993 ft | 444 kts | 266° |
| 2026-04-25 08:15 | 29.10831 | 38.44326 | 33992 ft | 444 kts | 266° |
| 2026-04-25 08:16 | 29.10777 | 38.37267 | 33991 ft | 444 kts | 266° |
| 2026-04-25 08:16 | 29.10715 | 38.30211 | 33989 ft | 444 kts | 266° |
| 2026-04-25 08:17 | 29.10646 | 38.23139 | 33988 ft | 445 kts | 266° |
| 2026-04-25 08:17 | 29.10573 | 38.16077 | 33985 ft | 444 kts | 266° |
| 2026-04-25 08:18 | 29.10496 | 38.09012 | 33978 ft | 444 kts | 266° |
| 2026-04-25 08:18 | 29.10417 | 38.01948 | 33975 ft | 444 kts | 266° |
| 2026-04-25 08:19 | 29.10354 | 37.94878 | 33973 ft | 445 kts | 266° |
| 2026-04-25 08:19 | 29.10296 | 37.87803 | 33973 ft | 445 kts | 266° |
| 2026-04-25 08:20 | 29.10244 | 37.80719 | 33971 ft | 445 kts | 266° |
| 2026-04-25 08:20 | 29.10155 | 37.73651 | 33971 ft | 445 kts | 266° |
| 2026-04-25 08:21 | 29.10056 | 37.66569 | 33969 ft | 445 kts | 266° |
| 2026-04-25 08:21 | 29.09954 | 37.59498 | 33970 ft | 445 kts | 266° |
| 2026-04-25 08:22 | 29.09852 | 37.52427 | 33968 ft | 445 kts | 266° |
| 2026-04-25 08:22 | 29.09778 | 37.45354 | 33969 ft | 445 kts | 266° |
| 2026-04-25 08:23 | 29.09725 | 37.38283 | 33967 ft | 445 kts | 266° |
| 2026-04-25 08:23 | 29.09661 | 37.31211 | 33968 ft | 445 kts | 266° |
| 2026-04-25 08:24 | 29.09593 | 37.24148 | 33957 ft | 445 kts | 266° |
| 2026-04-25 08:24 | 29.09520 | 37.17070 | 33952 ft | 445 kts | 266° |
| 2026-04-25 08:25 | 29.09451 | 37.10003 | 33954 ft | 445 kts | 266° |
| 2026-04-25 08:25 | 29.09410 | 37.02933 | 33953 ft | 444 kts | 266° |
| 2026-04-25 08:26 | 29.09345 | 36.95885 | 33952 ft | 444 kts | 266° |
| 2026-04-25 08:26 | 29.09269 | 36.88818 | 33954 ft | 444 kts | 266° |
| 2026-04-25 08:27 | 29.09205 | 36.81755 | 33953 ft | 444 kts | 266° |
| 2026-04-25 08:27 | 29.09130 | 36.74694 | 33954 ft | 444 kts | 266° |
| 2026-04-25 08:28 | 29.09034 | 36.67640 | 33952 ft | 444 kts | 266° |
| 2026-04-25 08:28 | 29.08932 | 36.60580 | 33951 ft | 444 kts | 266° |
| 2026-04-25 08:29 | 29.08829 | 36.53524 | 33946 ft | 444 kts | 266° |
| 2026-04-25 08:29 | 29.08724 | 36.46470 | 33944 ft | 444 kts | 266° |
| 2026-04-25 08:30 | 29.08531 | 36.39472 | 33943 ft | 444 kts | 265° |
| 2026-04-25 08:30 | 29.08319 | 36.32418 | 33941 ft | 444 kts | 265° |
| 2026-04-25 08:31 | 29.08108 | 36.25361 | 33940 ft | 444 kts | 265° |
| 2026-04-25 08:31 | 29.07896 | 36.18309 | 33938 ft | 444 kts | 265° |
| 2026-04-25 08:32 | 29.07681 | 36.11252 | 33936 ft | 444 kts | 265° |
| 2026-04-25 08:32 | 29.07491 | 36.04204 | 33934 ft | 444 kts | 265° |
| 2026-04-25 08:33 | 29.07303 | 35.97154 | 33934 ft | 444 kts | 265° |
| 2026-04-25 08:33 | 29.07097 | 35.90107 | 33932 ft | 443 kts | 265° |
| 2026-04-25 08:34 | 29.06882 | 35.83066 | 33931 ft | 443 kts | 265° |
| 2026-04-25 08:34 | 29.06663 | 35.76032 | 33927 ft | 443 kts | 265° |
| 2026-04-25 08:35 | 29.06439 | 35.68991 | 33926 ft | 443 kts | 265° |
| 2026-04-25 08:35 | 29.06211 | 35.61950 | 33923 ft | 443 kts | 265° |
| 2026-04-25 08:36 | 29.06019 | 35.56102 | 33922 ft | 443 kts | 265° |
| 2026-04-25 08:36 | 29.05784 | 35.49063 | 33920 ft | 444 kts | 265° |
| 2026-04-25 08:37 | 29.05545 | 35.42007 | 33919 ft | 444 kts | 265° |
| 2026-04-25 08:37 | 29.05263 | 35.33814 | 33918 ft | 444 kts | 265° |
| 2026-04-25 08:38 | 29.05057 | 35.27915 | 33916 ft | 444 kts | 265° |
| 2026-04-25 08:38 | 29.04810 | 35.20858 | 33903 ft | 444 kts | 265° |
| 2026-04-25 08:39 | 29.04581 | 35.13812 | 33905 ft | 444 kts | 265° |
| 2026-04-25 08:39 | 29.04320 | 35.06777 | 33903 ft | 444 kts | 265° |
| 2026-04-25 08:40 | 29.04050 | 34.99731 | 33903 ft | 444 kts | 265° |
| 2026-04-25 08:40 | 29.03778 | 34.92689 | 33900 ft | 443 kts | 265° |
| 2026-04-25 08:41 | 29.03506 | 34.85651 | 33901 ft | 443 kts | 265° |
| 2026-04-25 08:41 | 29.03345 | 34.78602 | 33899 ft | 444 kts | 267° |
| 2026-04-25 08:42 | 29.03328 | 34.71538 | 33896 ft | 445 kts | 270° |
| 2026-04-25 08:42 | 29.03886 | 34.68057 | 33903 ft | 450 kts | 286° |
| 2026-04-25 08:42 | 29.05326 | 34.64863 | 33900 ft | 458 kts | 302° |
| 2026-04-25 08:42 | 29.07553 | 34.62210 | 33902 ft | 468 kts | 316° |
| 2026-04-25 08:43 | 29.10273 | 34.60099 | 33899 ft | 477 kts | 323° |
| 2026-04-25 08:43 | 29.16042 | 34.56239 | 33898 ft | 483 kts | 324° |
| 2026-04-25 08:44 | 29.21870 | 34.52484 | 33899 ft | 484 kts | 326° |
| 2026-04-25 08:44 | 29.27708 | 34.48574 | 33902 ft | 482 kts | 322° |
| 2026-04-25 08:45 | 29.33276 | 34.44336 | 33901 ft | 480 kts | 320° |
| 2026-04-25 08:45 | 29.38824 | 34.40079 | 33902 ft | 479 kts | 321° |
| 2026-04-25 08:46 | 29.44334 | 34.35862 | 33899 ft | 480 kts | 321° |
| 2026-04-25 08:46 | 29.49883 | 34.31609 | 33899 ft | 480 kts | 321° |
| 2026-04-25 08:47 | 29.55444 | 34.27343 | 33898 ft | 481 kts | 321° |
| 2026-04-25 08:47 | 29.61022 | 34.23088 | 33897 ft | 482 kts | 322° |
| 2026-04-25 08:48 | 29.66867 | 34.19286 | 33903 ft | 484 kts | 327° |
| 2026-04-25 08:48 | 29.72878 | 34.15774 | 33902 ft | 485 kts | 328° |
| 2026-04-25 08:49 | 29.78880 | 34.12200 | 33902 ft | 486 kts | 327° |
| 2026-04-25 08:49 | 29.84856 | 34.08573 | 33901 ft | 485 kts | 327° |
| 2026-04-25 08:50 | 29.90822 | 34.04929 | 33902 ft | 485 kts | 327° |
| 2026-04-25 08:50 | 29.96795 | 34.01299 | 33901 ft | 485 kts | 327° |
| 2026-04-25 08:51 | 30.02763 | 33.97654 | 33902 ft | 485 kts | 327° |
| 2026-04-25 08:51 | 30.08725 | 33.94001 | 33902 ft | 485 kts | 327° |
| 2026-04-25 08:52 | 30.14688 | 33.90340 | 33902 ft | 485 kts | 327° |
| 2026-04-25 08:52 | 30.20644 | 33.86677 | 33903 ft | 485 kts | 327° |
| 2026-04-25 08:53 | 30.26558 | 33.83036 | 33904 ft | 485 kts | 327° |
| 2026-04-25 08:53 | 30.32513 | 33.79363 | 33902 ft | 485 kts | 327° |
| 2026-04-25 08:54 | 30.38471 | 33.75683 | 33900 ft | 486 kts | 327° |
| 2026-04-25 08:54 | 30.44430 | 33.71998 | 33901 ft | 485 kts | 327° |
| 2026-04-25 08:55 | 30.50388 | 33.68308 | 33901 ft | 485 kts | 327° |
| 2026-04-25 08:55 | 30.56351 | 33.64610 | 33901 ft | 486 kts | 327° |
| 2026-04-25 08:56 | 30.62312 | 33.60908 | 33905 ft | 486 kts | 327° |
| 2026-04-25 08:56 | 30.68274 | 33.57200 | 33904 ft | 486 kts | 327° |
| 2026-04-25 08:57 | 30.74234 | 33.53488 | 33907 ft | 486 kts | 327° |
| 2026-04-25 08:57 | 30.80199 | 33.49768 | 33905 ft | 487 kts | 327° |
| 2026-04-25 08:58 | 30.86168 | 33.46039 | 33905 ft | 486 kts | 327° |
| 2026-04-25 08:58 | 30.92129 | 33.42312 | 33905 ft | 486 kts | 327° |
| 2026-04-25 08:59 | 30.98046 | 33.38605 | 33906 ft | 486 kts | 327° |
| 2026-04-25 08:59 | 31.04003 | 33.34868 | 33906 ft | 487 kts | 327° |
| 2026-04-25 09:00 | 31.09969 | 33.31128 | 33906 ft | 487 kts | 327° |
| 2026-04-25 09:00 | 31.15943 | 33.27381 | 33906 ft | 487 kts | 327° |
| 2026-04-25 09:01 | 31.21904 | 33.23620 | 33906 ft | 487 kts | 327° |
| 2026-04-25 09:01 | 31.27871 | 33.19848 | 33909 ft | 487 kts | 327° |
| 2026-04-25 09:02 | 31.33861 | 33.16145 | 33916 ft | 488 kts | 331° |
| 2026-04-25 09:02 | 31.40412 | 33.13869 | 33916 ft | 497 kts | 347° |
| 2026-04-25 09:03 | 31.47386 | 33.13518 | 33916 ft | 506 kts | 356° |
| 2026-04-25 09:03 | 31.54440 | 33.13400 | 33916 ft | 507 kts | 354° |
| 2026-04-25 09:04 | 31.61482 | 33.13046 | 33916 ft | 506 kts | 353° |
| 2026-04-25 09:04 | 31.68517 | 33.12684 | 33915 ft | 506 kts | 353° |
| 2026-04-25 09:05 | 31.75542 | 33.12320 | 33911 ft | 504 kts | 352° |
| 2026-04-25 09:05 | 31.78984 | 33.11700 | 33912 ft | 497 kts | 340° |
| 2026-04-25 09:05 | 31.82180 | 33.10208 | 33912 ft | 493 kts | 327° |
| 2026-04-25 09:05 | 31.84969 | 33.07939 | 33919 ft | 486 kts | 314° |
| 2026-04-25 09:06 | 31.87322 | 33.05135 | 33919 ft | 479 kts | 307° |
| 2026-04-25 09:06 | 31.91564 | 32.99163 | 33916 ft | 473 kts | 306° |
| 2026-04-25 09:07 | 31.95913 | 32.93352 | 33918 ft | 473 kts | 308° |
| 2026-04-25 09:07 | 32.00414 | 32.87668 | 33920 ft | 475 kts | 309° |
| 2026-04-25 09:08 | 32.04921 | 32.82032 | 33921 ft | 477 kts | 309° |
| 2026-04-25 09:08 | 32.09493 | 32.76360 | 33922 ft | 477 kts | 309° |
| 2026-04-25 09:09 | 32.14046 | 32.70671 | 33923 ft | 476 kts | 308° |
| 2026-04-25 09:09 | 32.18590 | 32.64972 | 33928 ft | 476 kts | 308° |
| 2026-04-25 09:10 | 32.23121 | 32.59277 | 33931 ft | 476 kts | 308° |
| 2026-04-25 09:10 | 32.27651 | 32.53574 | 33931 ft | 476 kts | 308° |
| 2026-04-25 09:11 | 32.34433 | 32.45018 | 33929 ft | 474 kts | 307° |
| 2026-04-25 09:11 | 32.38920 | 32.39346 | 33930 ft | 471 kts | 307° |
| 2026-04-25 09:12 | 32.43411 | 32.33686 | 33932 ft | 472 kts | 307° |
| 2026-04-25 09:12 | 32.47898 | 32.28008 | 33932 ft | 472 kts | 307° |
| 2026-04-25 09:13 | 32.52372 | 32.22313 | 33933 ft | 472 kts | 307° |
| 2026-04-25 09:13 | 32.56842 | 32.16612 | 33935 ft | 472 kts | 307° |
| 2026-04-25 09:14 | 32.61310 | 32.10912 | 33934 ft | 472 kts | 307° |
| 2026-04-25 09:14 | 32.65859 | 32.05273 | 33934 ft | 474 kts | 310° |
| 2026-04-25 09:15 | 32.70702 | 31.99930 | 33928 ft | 476 kts | 312° |
| 2026-04-25 09:15 | 32.75591 | 31.94616 | 33928 ft | 477 kts | 311° |
| 2026-04-25 09:16 | 32.80442 | 31.89246 | 33929 ft | 476 kts | 311° |
| 2026-04-25 09:16 | 32.85272 | 31.83856 | 33929 ft | 477 kts | 311° |
| 2026-04-25 09:17 | 32.92543 | 31.75763 | 33929 ft | 477 kts | 311° |
| 2026-04-25 09:18 | 32.97392 | 31.70360 | 33929 ft | 478 kts | 311° |
| 2026-04-25 09:18 | 33.02240 | 31.64932 | 33928 ft | 478 kts | 311° |
| 2026-04-25 09:19 | 33.07047 | 31.59535 | 33929 ft | 478 kts | 311° |
| 2026-04-25 09:19 | 33.11891 | 31.54086 | 33930 ft | 479 kts | 311° |
| 2026-04-25 09:20 | 33.16733 | 31.48630 | 33930 ft | 479 kts | 311° |
| 2026-04-25 09:20 | 33.21578 | 31.43162 | 33929 ft | 479 kts | 311° |
| 2026-04-25 09:21 | 33.26418 | 31.37690 | 33930 ft | 479 kts | 311° |
| 2026-04-25 09:21 | 33.31258 | 31.32209 | 33931 ft | 479 kts | 311° |
| 2026-04-25 09:22 | 33.36097 | 31.26721 | 33931 ft | 480 kts | 311° |
| 2026-04-25 09:22 | 33.40941 | 31.21219 | 33931 ft | 480 kts | 311° |
| 2026-04-25 09:23 | 33.45779 | 31.15714 | 33932 ft | 480 kts | 311° |
| 2026-04-25 09:23 | 33.50620 | 31.10196 | 33933 ft | 480 kts | 311° |
| 2026-04-25 09:24 | 33.55450 | 31.04682 | 33933 ft | 479 kts | 311° |
| 2026-04-25 09:24 | 33.59458 | 31.00101 | 33934 ft | 479 kts | 311° |
| 2026-04-25 09:25 | 33.64280 | 30.94580 | 33934 ft | 479 kts | 311° |
| 2026-04-25 09:25 | 33.69102 | 30.89050 | 33934 ft | 479 kts | 311° |
| 2026-04-25 09:26 | 33.73921 | 30.83515 | 33935 ft | 479 kts | 311° |
| 2026-04-25 09:26 | 33.78738 | 30.77972 | 33935 ft | 479 kts | 311° |
| 2026-04-25 09:27 | 33.83554 | 30.72422 | 33936 ft | 479 kts | 311° |
| 2026-04-25 09:27 | 33.88369 | 30.66864 | 33936 ft | 480 kts | 311° |
| 2026-04-25 09:28 | 33.93178 | 30.61304 | 33936 ft | 480 kts | 311° |
| 2026-04-25 09:28 | 33.97991 | 30.55730 | 33938 ft | 480 kts | 311° |
| 2026-04-25 09:29 | 34.02801 | 30.50149 | 33939 ft | 480 kts | 311° |
| 2026-04-25 09:29 | 34.07616 | 30.44554 | 33939 ft | 481 kts | 311° |
| 2026-04-25 09:30 | 34.12433 | 30.38947 | 33939 ft | 481 kts | 311° |
| 2026-04-25 09:30 | 34.17210 | 30.33377 | 33942 ft | 481 kts | 311° |
| 2026-04-25 09:31 | 34.22007 | 30.27775 | 33943 ft | 481 kts | 311° |
| 2026-04-25 09:31 | 34.26837 | 30.22163 | 33944 ft | 481 kts | 311° |
| 2026-04-25 09:32 | 34.31640 | 30.16530 | 33945 ft | 481 kts | 311° |
| 2026-04-25 09:32 | 34.36429 | 30.10893 | 33948 ft | 481 kts | 311° |
| 2026-04-25 09:33 | 34.41217 | 30.05251 | 33949 ft | 480 kts | 311° |
| 2026-04-25 09:33 | 34.46019 | 29.99612 | 33949 ft | 481 kts | 312° |
| 2026-04-25 09:34 | 34.51104 | 29.94322 | 33952 ft | 484 kts | 316° |
| 2026-04-25 09:34 | 34.56402 | 29.89234 | 33977 ft | 486 kts | 316° |
| 2026-04-25 09:35 | 34.61674 | 29.84085 | 33979 ft | 487 kts | 316° |
| 2026-04-25 09:35 | 34.66921 | 29.78886 | 33984 ft | 487 kts | 316° |
| 2026-04-25 09:36 | 34.72156 | 29.73670 | 33987 ft | 487 kts | 316° |
| 2026-04-25 09:36 | 34.77411 | 29.68476 | 33985 ft | 487 kts | 316° |
| 2026-04-25 09:37 | 34.82667 | 29.63252 | 33985 ft | 488 kts | 316° |
| 2026-04-25 09:37 | 34.87918 | 29.58009 | 33988 ft | 488 kts | 316° |
| 2026-04-25 09:38 | 34.93172 | 29.52749 | 33990 ft | 489 kts | 316° |
| 2026-04-25 09:38 | 34.98422 | 29.47482 | 33991 ft | 489 kts | 316° |
| 2026-04-25 09:39 | 35.03680 | 29.42199 | 33992 ft | 490 kts | 316° |
| 2026-04-25 09:39 | 35.08939 | 29.36904 | 33995 ft | 490 kts | 316° |
| 2026-04-25 09:40 | 35.16828 | 29.28944 | 33997 ft | 491 kts | 316° |
| 2026-04-25 09:40 | 35.22090 | 29.23623 | 33999 ft | 491 kts | 316° |
| 2026-04-25 09:41 | 35.27353 | 29.18292 | 34001 ft | 491 kts | 316° |
| 2026-04-25 09:41 | 35.32619 | 29.12948 | 34003 ft | 492 kts | 316° |
| 2026-04-25 09:42 | 35.37886 | 29.07595 | 34005 ft | 492 kts | 316° |
| 2026-04-25 09:42 | 35.43155 | 29.02229 | 34004 ft | 493 kts | 316° |
| 2026-04-25 09:43 | 35.48427 | 28.96852 | 33990 ft | 493 kts | 316° |
| 2026-04-25 09:43 | 35.53700 | 28.91463 | 33988 ft | 494 kts | 316° |
| 2026-04-25 09:44 | 35.58978 | 28.86060 | 33990 ft | 494 kts | 316° |
| 2026-04-25 09:44 | 35.64267 | 28.80637 | 33969 ft | 495 kts | 316° |
| 2026-04-25 09:45 | 35.69551 | 28.75208 | 33966 ft | 495 kts | 316° |
| 2026-04-25 09:45 | 35.75027 | 28.70034 | 33978 ft | 498 kts | 321° |
| 2026-04-25 09:46 | 35.80717 | 28.65148 | 33979 ft | 499 kts | 322° |
| 2026-04-25 09:46 | 35.86460 | 28.60306 | 33979 ft | 500 kts | 322° |
| 2026-04-25 09:47 | 35.92200 | 28.55451 | 33978 ft | 501 kts | 322° |
| 2026-04-25 09:47 | 35.97953 | 28.50573 | 33978 ft | 501 kts | 322° |
| 2026-04-25 09:48 | 36.03697 | 28.45693 | 33980 ft | 502 kts | 322° |
| 2026-04-25 09:48 | 36.09442 | 28.40804 | 33977 ft | 502 kts | 322° |
| 2026-04-25 09:49 | 36.15189 | 28.35903 | 33975 ft | 502 kts | 322° |
| 2026-04-25 09:49 | 36.20939 | 28.30991 | 33973 ft | 502 kts | 322° |
| 2026-04-25 09:50 | 36.26684 | 28.26074 | 33971 ft | 502 kts | 322° |
| 2026-04-25 09:50 | 36.32429 | 28.21149 | 33967 ft | 502 kts | 322° |
| 2026-04-25 09:51 | 36.38175 | 28.16212 | 33965 ft | 502 kts | 322° |
| 2026-04-25 09:51 | 36.43915 | 28.11273 | 33965 ft | 501 kts | 322° |
| 2026-04-25 09:52 | 36.49640 | 28.06337 | 33966 ft | 501 kts | 322° |
| 2026-04-25 09:52 | 36.55366 | 28.01392 | 33968 ft | 501 kts | 322° |
| 2026-04-25 09:53 | 36.61082 | 27.96445 | 33973 ft | 501 kts | 322° |
| 2026-04-25 09:53 | 36.66803 | 27.91486 | 33978 ft | 501 kts | 323° |
| 2026-04-25 09:54 | 36.72323 | 27.86692 | 33981 ft | 500 kts | 323° |
| 2026-04-25 09:54 | 36.78029 | 27.81728 | 33984 ft | 500 kts | 323° |
| 2026-04-25 09:55 | 36.83726 | 27.76762 | 33993 ft | 499 kts | 323° |
| 2026-04-25 09:55 | 36.89412 | 27.71797 | 34000 ft | 498 kts | 323° |
| 2026-04-25 09:56 | 36.95101 | 27.66820 | 34018 ft | 500 kts | 323° |
| 2026-04-25 09:56 | 37.00783 | 27.61839 | 34015 ft | 498 kts | 323° |
| 2026-04-25 09:57 | 37.06407 | 27.56901 | 34013 ft | 496 kts | 323° |
| 2026-04-25 09:57 | 37.12059 | 27.51928 | 34016 ft | 496 kts | 323° |
| 2026-04-25 09:58 | 37.17702 | 27.46954 | 34017 ft | 496 kts | 323° |
| 2026-04-25 09:58 | 37.23341 | 27.41975 | 34016 ft | 496 kts | 323° |
| 2026-04-25 09:59 | 37.28974 | 27.36991 | 34011 ft | 495 kts | 323° |
| 2026-04-25 09:59 | 37.34607 | 27.31998 | 34006 ft | 495 kts | 323° |
| 2026-04-25 10:00 | 37.40228 | 27.27007 | 33998 ft | 495 kts | 323° |
| 2026-04-25 10:00 | 37.45853 | 27.22002 | 33992 ft | 495 kts | 323° |
| 2026-04-25 10:01 | 37.51467 | 27.16998 | 34004 ft | 495 kts | 323° |
| 2026-04-25 10:01 | 37.56543 | 27.12465 | 34006 ft | 495 kts | 323° |
| 2026-04-25 10:02 | 37.62157 | 27.07443 | 34011 ft | 495 kts | 323° |
| 2026-04-25 10:02 | 37.67774 | 27.02410 | 34018 ft | 495 kts | 323° |
| 2026-04-25 10:03 | 37.73380 | 26.97376 | 34021 ft | 495 kts | 323° |
| 2026-04-25 10:03 | 37.78988 | 26.92330 | 34018 ft | 495 kts | 323° |
| 2026-04-25 10:04 | 37.84597 | 26.87275 | 34012 ft | 495 kts | 323° |
| 2026-04-25 10:04 | 37.90197 | 26.82217 | 34016 ft | 495 kts | 324° |
| 2026-04-25 10:05 | 37.95804 | 26.77144 | 34015 ft | 495 kts | 324° |
| 2026-04-25 10:05 | 38.01409 | 26.72063 | 34015 ft | 495 kts | 324° |
| 2026-04-25 10:06 | 38.06954 | 26.67026 | 34012 ft | 492 kts | 324° |
| 2026-04-25 10:06 | 38.12513 | 26.61968 | 34012 ft | 492 kts | 324° |
| 2026-04-25 10:07 | 38.18077 | 26.56895 | 34014 ft | 493 kts | 324° |
| 2026-04-25 10:07 | 38.23645 | 26.51809 | 34016 ft | 493 kts | 324° |
| 2026-04-25 10:08 | 38.29214 | 26.46712 | 34017 ft | 493 kts | 324° |
| 2026-04-25 10:08 | 38.34783 | 26.41604 | 34018 ft | 493 kts | 324° |
| 2026-04-25 10:09 | 38.39439 | 26.37327 | 34020 ft | 493 kts | 324° |
| 2026-04-25 10:09 | 38.44994 | 26.32215 | 34020 ft | 493 kts | 324° |
| 2026-04-25 10:10 | 38.50527 | 26.27113 | 34021 ft | 493 kts | 324° |
| 2026-04-25 10:10 | 38.56080 | 26.21983 | 34020 ft | 492 kts | 324° |
| 2026-04-25 10:11 | 38.61626 | 26.16849 | 34021 ft | 492 kts | 324° |
| 2026-04-25 10:11 | 38.67165 | 26.11712 | 34022 ft | 492 kts | 324° |
| 2026-04-25 10:12 | 38.72704 | 26.06565 | 34025 ft | 491 kts | 324° |
| 2026-04-25 10:13 | 38.80988 | 25.98848 | 34026 ft | 490 kts | 325° |
| 2026-04-25 10:13 | 38.86497 | 25.93704 | 34026 ft | 489 kts | 325° |
| 2026-04-25 10:14 | 38.91994 | 25.88561 | 34026 ft | 488 kts | 326° |
| 2026-04-25 10:14 | 38.97480 | 25.83417 | 34027 ft | 488 kts | 326° |
| 2026-04-25 10:15 | 39.02952 | 25.78277 | 34029 ft | 487 kts | 326° |
| 2026-04-25 10:15 | 39.08416 | 25.73134 | 34032 ft | 486 kts | 326° |
| 2026-04-25 10:16 | 39.13868 | 25.67993 | 34032 ft | 486 kts | 326° |
| 2026-04-25 10:16 | 39.19314 | 25.62847 | 34033 ft | 485 kts | 326° |
| 2026-04-25 10:17 | 39.24749 | 25.57702 | 34035 ft | 485 kts | 326° |
| 2026-04-25 10:17 | 39.30184 | 25.52546 | 34037 ft | 484 kts | 326° |
| 2026-04-25 10:18 | 39.35603 | 25.47396 | 34038 ft | 484 kts | 326° |
| 2026-04-25 10:18 | 39.41021 | 25.42236 | 34041 ft | 483 kts | 326° |
| 2026-04-25 10:19 | 39.46434 | 25.37071 | 34044 ft | 483 kts | 326° |
| 2026-04-25 10:19 | 39.51839 | 25.31904 | 34045 ft | 483 kts | 326° |
| 2026-04-25 10:20 | 39.57241 | 25.26728 | 34046 ft | 483 kts | 326° |
| 2026-04-25 10:20 | 39.62641 | 25.21545 | 34050 ft | 483 kts | 326° |
| 2026-04-25 10:21 | 39.68036 | 25.16356 | 34052 ft | 482 kts | 326° |
| 2026-04-25 10:21 | 39.73423 | 25.11165 | 34052 ft | 482 kts | 326° |
| 2026-04-25 10:22 | 39.78811 | 25.05962 | 34052 ft | 482 kts | 326° |
| 2026-04-25 10:22 | 39.84194 | 25.00754 | 34053 ft | 482 kts | 326° |
| 2026-04-25 10:23 | 39.89571 | 24.95541 | 34052 ft | 482 kts | 326° |
| 2026-04-25 10:23 | 39.94947 | 24.90319 | 34051 ft | 482 kts | 326° |
| 2026-04-25 10:24 | 40.00310 | 24.85099 | 34050 ft | 481 kts | 326° |
| 2026-04-25 10:24 | 40.05623 | 24.79917 | 34048 ft | 478 kts | 326° |
| 2026-04-25 10:25 | 40.10971 | 24.74691 | 34048 ft | 476 kts | 326° |
| 2026-04-25 10:25 | 40.16254 | 24.69518 | 34049 ft | 477 kts | 326° |
| 2026-04-25 10:26 | 40.21591 | 24.64282 | 34049 ft | 477 kts | 326° |
| 2026-04-25 10:26 | 40.26900 | 24.59062 | 34055 ft | 477 kts | 326° |
| 2026-04-25 10:27 | 40.32209 | 24.53833 | 34055 ft | 477 kts | 326° |
| 2026-04-25 10:27 | 40.37515 | 24.48596 | 34056 ft | 477 kts | 326° |
| 2026-04-25 10:28 | 40.42815 | 24.43354 | 34057 ft | 477 kts | 326° |
| 2026-04-25 10:28 | 40.48115 | 24.38102 | 34056 ft | 477 kts | 326° |
| 2026-04-25 10:29 | 40.53411 | 24.32844 | 34057 ft | 477 kts | 326° |
| 2026-04-25 10:29 | 40.58695 | 24.27586 | 34058 ft | 477 kts | 326° |
| 2026-04-25 10:30 | 40.63978 | 24.22319 | 34057 ft | 476 kts | 326° |
| 2026-04-25 10:30 | 40.69261 | 24.17042 | 34057 ft | 476 kts | 326° |
| 2026-04-25 10:31 | 40.74535 | 24.11763 | 34055 ft | 476 kts | 326° |
| 2026-04-25 10:31 | 40.79801 | 24.06482 | 34054 ft | 475 kts | 326° |
| 2026-04-25 10:32 | 40.85059 | 24.01198 | 34054 ft | 475 kts | 326° |
| 2026-04-25 10:32 | 40.90309 | 23.95912 | 34054 ft | 474 kts | 326° |
| 2026-04-25 10:33 | 40.95547 | 23.90628 | 34054 ft | 473 kts | 326° |
| 2026-04-25 10:33 | 41.00775 | 23.85343 | 34055 ft | 473 kts | 326° |
| 2026-04-25 10:34 | 41.05991 | 23.80062 | 34055 ft | 472 kts | 326° |
| 2026-04-25 10:34 | 41.11216 | 23.74761 | 34055 ft | 472 kts | 326° |
| 2026-04-25 10:35 | 41.16437 | 23.69514 | 34056 ft | 471 kts | 327° |
| 2026-04-25 10:35 | 41.21715 | 23.64367 | 34057 ft | 471 kts | 326° |
| 2026-04-25 10:36 | 41.26919 | 23.59085 | 34057 ft | 470 kts | 326° |
| 2026-04-25 10:36 | 41.32118 | 23.53803 | 34057 ft | 470 kts | 326° |
| 2026-04-25 10:37 | 41.37342 | 23.48511 | 34454 ft | 472 kts | 326° |
| 2026-04-25 10:37 | 41.39989 | 23.45968 | 34897 ft | 468 kts | 329° |
| 2026-04-25 10:37 | 41.42736 | 23.43718 | 35235 ft | 465 kts | 334° |
| 2026-04-25 10:37 | 41.45607 | 23.41685 | 35548 ft | 463 kts | 336° |
| 2026-04-25 10:38 | 41.48459 | 23.39852 | 35844 ft | 462 kts | 338° |
| 2026-04-25 10:38 | 41.51420 | 23.38038 | 36040 ft | 463 kts | 338° |
| 2026-04-25 10:38 | 41.54299 | 23.36260 | 36069 ft | 463 kts | 338° |
| 2026-04-25 10:39 | 41.60155 | 23.32524 | 36067 ft | 462 kts | 337° |
| 2026-04-25 10:39 | 41.65924 | 23.28762 | 36068 ft | 461 kts | 337° |
| 2026-04-25 10:40 | 41.71691 | 23.24976 | 36070 ft | 462 kts | 337° |
| 2026-04-25 10:40 | 41.77467 | 23.21214 | 36071 ft | 462 kts | 337° |
| 2026-04-25 10:41 | 41.83246 | 23.17420 | 36073 ft | 462 kts | 337° |
| 2026-04-25 10:41 | 41.89018 | 23.13613 | 36074 ft | 462 kts | 337° |
| 2026-04-25 10:42 | 41.94787 | 23.09797 | 36074 ft | 462 kts | 337° |
| 2026-04-25 10:42 | 42.00547 | 23.05978 | 36075 ft | 462 kts | 337° |
| 2026-04-25 10:43 | 42.06285 | 23.02165 | 36080 ft | 458 kts | 336° |
| 2026-04-25 10:43 | 42.11987 | 22.98369 | 36080 ft | 456 kts | 336° |
| 2026-04-25 10:44 | 42.17680 | 22.94571 | 36080 ft | 457 kts | 336° |
| 2026-04-25 10:44 | 42.23384 | 22.90758 | 36080 ft | 458 kts | 336° |
| 2026-04-25 10:45 | 42.29097 | 22.86931 | 36081 ft | 458 kts | 336° |
| 2026-04-25 10:45 | 42.34801 | 22.83102 | 36080 ft | 458 kts | 336° |
| 2026-04-25 10:46 | 42.40498 | 22.79271 | 36081 ft | 458 kts | 336° |
| 2026-04-25 10:46 | 42.46203 | 22.75425 | 36081 ft | 458 kts | 336° |
| 2026-04-25 10:47 | 42.51858 | 22.71606 | 36081 ft | 458 kts | 336° |
| 2026-04-25 10:47 | 42.57552 | 22.67765 | 36081 ft | 457 kts | 336° |
| 2026-04-25 10:48 | 42.63252 | 22.63918 | 36081 ft | 457 kts | 336° |
| 2026-04-25 10:48 | 42.68960 | 22.60030 | 36081 ft | 458 kts | 336° |
| 2026-04-25 10:49 | 42.74674 | 22.56128 | 36081 ft | 457 kts | 336° |
| 2026-04-25 10:49 | 42.80357 | 22.52242 | 36081 ft | 457 kts | 336° |
| 2026-04-25 10:50 | 42.85099 | 22.48960 | 36081 ft | 457 kts | 334° |
| 2026-04-25 10:50 | 42.90523 | 22.44422 | 36080 ft | 458 kts | 329° |
| 2026-04-25 10:51 | 42.95746 | 22.39561 | 36081 ft | 458 kts | 328° |
| 2026-04-25 10:51 | 43.01030 | 22.34706 | 36081 ft | 457 kts | 329° |
| 2026-04-25 10:52 | 43.06366 | 22.29872 | 36084 ft | 457 kts | 329° |
| 2026-04-25 10:52 | 43.11626 | 22.25119 | 36085 ft | 455 kts | 329° |
| 2026-04-25 10:53 | 43.16952 | 22.20349 | 36083 ft | 454 kts | 329° |
| 2026-04-25 10:53 | 43.22239 | 22.15638 | 36081 ft | 453 kts | 331° |
| 2026-04-25 10:54 | 43.27781 | 22.11544 | 36084 ft | 452 kts | 335° |
| 2026-04-25 10:54 | 43.33384 | 22.07761 | 36082 ft | 451 kts | 335° |
| 2026-04-25 10:55 | 43.39071 | 22.03988 | 36083 ft | 450 kts | 335° |
| 2026-04-25 10:55 | 43.44707 | 22.00236 | 36082 ft | 450 kts | 335° |
| 2026-04-25 10:56 | 43.50345 | 21.96472 | 36083 ft | 450 kts | 335° |
| 2026-04-25 10:56 | 43.55935 | 21.92732 | 36081 ft | 450 kts | 335° |
| 2026-04-25 10:57 | 43.61602 | 21.88930 | 36082 ft | 449 kts | 335° |
| 2026-04-25 10:57 | 43.67209 | 21.85162 | 36083 ft | 448 kts | 335° |
| 2026-04-25 10:58 | 43.72813 | 21.81387 | 36086 ft | 449 kts | 335° |
| 2026-04-25 10:58 | 43.78431 | 21.77595 | 36083 ft | 449 kts | 335° |
| 2026-04-25 10:59 | 43.84037 | 21.73803 | 36080 ft | 449 kts | 335° |
| 2026-04-25 10:59 | 43.89636 | 21.70008 | 36077 ft | 449 kts | 335° |
| 2026-04-25 11:00 | 43.95249 | 21.66195 | 36076 ft | 449 kts | 335° |
| 2026-04-25 11:00 | 44.00853 | 21.62381 | 36077 ft | 448 kts | 335° |
| 2026-04-25 11:01 | 44.06447 | 21.58565 | 36074 ft | 447 kts | 335° |
| 2026-04-25 11:01 | 44.12030 | 21.54749 | 36075 ft | 447 kts | 334° |
| 2026-04-25 11:02 | 44.17596 | 21.50935 | 36073 ft | 448 kts | 334° |
| 2026-04-25 11:02 | 44.23213 | 21.47079 | 36073 ft | 448 kts | 334° |
| 2026-04-25 11:03 | 44.28795 | 21.43240 | 36071 ft | 448 kts | 334° |
| 2026-04-25 11:03 | 44.34390 | 21.39382 | 36070 ft | 448 kts | 334° |
| 2026-04-25 11:04 | 44.39954 | 21.35538 | 36067 ft | 447 kts | 334° |
| 2026-04-25 11:04 | 44.45535 | 21.31674 | 36065 ft | 447 kts | 334° |
| 2026-04-25 11:05 | 44.51108 | 21.27807 | 36070 ft | 447 kts | 334° |
| 2026-04-25 11:05 | 44.56687 | 21.23928 | 36070 ft | 447 kts | 334° |
| 2026-04-25 11:06 | 44.62261 | 21.20044 | 36068 ft | 447 kts | 334° |
| 2026-04-25 11:06 | 44.67833 | 21.16153 | 36067 ft | 447 kts | 334° |
| 2026-04-25 11:07 | 44.73400 | 21.12257 | 36066 ft | 447 kts | 334° |
| 2026-04-25 11:07 | 44.78966 | 21.08353 | 36064 ft | 447 kts | 334° |
| 2026-04-25 11:08 | 44.84537 | 21.04438 | 36067 ft | 447 kts | 333° |
| 2026-04-25 11:08 | 44.90101 | 21.00518 | 36066 ft | 447 kts | 333° |
| 2026-04-25 11:09 | 44.95662 | 20.96592 | 36062 ft | 447 kts | 333° |
| 2026-04-25 11:09 | 45.01228 | 20.92655 | 36062 ft | 447 kts | 333° |
| 2026-04-25 11:10 | 45.06782 | 20.88717 | 36061 ft | 446 kts | 333° |
| 2026-04-25 11:10 | 45.12282 | 20.84809 | 36064 ft | 446 kts | 333° |
| 2026-04-25 11:11 | 45.17872 | 20.80829 | 36052 ft | 446 kts | 333° |
| 2026-04-25 11:11 | 45.23419 | 20.76870 | 36047 ft | 446 kts | 333° |
| 2026-04-25 11:12 | 45.28963 | 20.72905 | 36045 ft | 446 kts | 333° |
| 2026-04-25 11:12 | 45.34508 | 20.68931 | 36044 ft | 446 kts | 333° |
| 2026-04-25 11:13 | 45.40048 | 20.64951 | 36043 ft | 446 kts | 332° |
| 2026-04-25 11:13 | 45.45578 | 20.60970 | 36041 ft | 445 kts | 332° |
| 2026-04-25 11:14 | 45.51110 | 20.56979 | 36041 ft | 445 kts | 332° |
| 2026-04-25 11:14 | 45.56636 | 20.52983 | 36039 ft | 446 kts | 332° |
| 2026-04-25 11:15 | 45.62170 | 20.48973 | 36038 ft | 446 kts | 332° |
| 2026-04-25 11:15 | 45.67692 | 20.44963 | 36038 ft | 445 kts | 332° |
| 2026-04-25 11:16 | 45.75970 | 20.38935 | 36037 ft | 445 kts | 332° |
| 2026-04-25 11:16 | 45.81450 | 20.34934 | 36030 ft | 445 kts | 332° |
| 2026-04-25 11:17 | 45.86969 | 20.30896 | 36030 ft | 445 kts | 332° |
| 2026-04-25 11:17 | 45.92508 | 20.26933 | 36029 ft | 445 kts | 332° |
| 2026-04-25 11:18 | 45.98017 | 20.22921 | 36029 ft | 444 kts | 332° |
| 2026-04-25 11:18 | 46.03529 | 20.18869 | 36023 ft | 445 kts | 331° |
| 2026-04-25 11:19 | 46.09034 | 20.14818 | 36023 ft | 445 kts | 332° |
| 2026-04-25 11:19 | 46.14552 | 20.10767 | 36022 ft | 445 kts | 332° |
| 2026-04-25 11:20 | 46.20042 | 20.06634 | 36021 ft | 444 kts | 330° |
| 2026-04-25 11:20 | 46.25393 | 20.02169 | 36026 ft | 443 kts | 325° |
| 2026-04-25 11:21 | 46.30111 | 19.96496 | 36019 ft | 442 kts | 314° |
| 2026-04-25 11:21 | 46.34335 | 19.90035 | 36022 ft | 442 kts | 312° |
| 2026-04-25 11:22 | 46.37771 | 19.84475 | 36022 ft | 442 kts | 311° |
| 2026-04-25 11:22 | 46.42486 | 19.76693 | 36022 ft | 442 kts | 311° |
| 2026-04-25 11:23 | 46.46531 | 19.70008 | 36028 ft | 441 kts | 311° |
| 2026-04-25 11:23 | 46.50576 | 19.63311 | 36027 ft | 441 kts | 311° |
| 2026-04-25 11:24 | 46.54609 | 19.56620 | 36027 ft | 440 kts | 311° |
| 2026-04-25 11:24 | 46.58637 | 19.49921 | 36027 ft | 440 kts | 311° |
| 2026-04-25 11:25 | 46.62653 | 19.43227 | 36026 ft | 439 kts | 310° |
| 2026-04-25 11:25 | 46.66663 | 19.36525 | 36027 ft | 439 kts | 310° |
| 2026-04-25 11:26 | 46.70672 | 19.29810 | 36029 ft | 439 kts | 310° |
| 2026-04-25 11:26 | 46.74670 | 19.23095 | 36032 ft | 438 kts | 310° |
| 2026-04-25 11:27 | 46.78660 | 19.16379 | 36034 ft | 438 kts | 310° |
| 2026-04-25 11:27 | 46.81299 | 19.11927 | 36035 ft | 438 kts | 310° |
| 2026-04-25 11:28 | 46.86627 | 19.02917 | 36041 ft | 438 kts | 310° |
| 2026-04-25 11:28 | 46.90605 | 18.96170 | 35887 ft | 440 kts | 310° |
| 2026-04-25 11:29 | 46.92581 | 18.92815 | 35388 ft | 439 kts | 310° |
| 2026-04-25 11:29 | 46.94556 | 18.89454 | 34937 ft | 433 kts | 310° |
| 2026-04-25 11:29 | 46.96510 | 18.86126 | 34444 ft | 429 kts | 310° |
| 2026-04-25 11:29 | 46.98445 | 18.82826 | 33970 ft | 426 kts | 309° |
| 2026-04-25 11:30 | 47.00368 | 18.79543 | 33509 ft | 422 kts | 309° |
| 2026-04-25 11:30 | 47.02269 | 18.76293 | 33054 ft | 419 kts | 309° |
| 2026-04-25 11:30 | 47.04160 | 18.73057 | 32611 ft | 415 kts | 309° |
| 2026-04-25 11:30 | 47.06027 | 18.69858 | 32172 ft | 412 kts | 309° |
| 2026-04-25 11:31 | 47.07883 | 18.66675 | 31744 ft | 408 kts | 309° |
| 2026-04-25 11:31 | 47.09717 | 18.63524 | 31317 ft | 405 kts | 309° |
| 2026-04-25 11:31 | 47.11540 | 18.60391 | 30898 ft | 401 kts | 309° |
| 2026-04-25 11:31 | 47.12763 | 18.58285 | 30615 ft | 399 kts | 309° |
| 2026-04-25 11:32 | 47.14554 | 18.55200 | 30192 ft | 396 kts | 309° |
| 2026-04-25 11:32 | 47.16335 | 18.52129 | 29765 ft | 393 kts | 309° |
| 2026-04-25 11:32 | 47.18102 | 18.49078 | 29311 ft | 391 kts | 309° |
| 2026-04-25 11:32 | 47.19856 | 18.46047 | 28859 ft | 388 kts | 309° |
| 2026-04-25 11:33 | 47.21600 | 18.43028 | 28408 ft | 386 kts | 309° |
| 2026-04-25 11:33 | 47.23333 | 18.40027 | 27958 ft | 384 kts | 309° |
| 2026-04-25 11:33 | 47.25058 | 18.37036 | 27504 ft | 382 kts | 309° |
| 2026-04-25 11:33 | 47.26769 | 18.34065 | 27060 ft | 380 kts | 309° |
| 2026-04-25 11:34 | 47.28472 | 18.31105 | 26620 ft | 378 kts | 309° |
| 2026-04-25 11:34 | 47.30142 | 18.28200 | 26182 ft | 375 kts | 309° |
| 2026-04-25 11:34 | 47.31826 | 18.25268 | 25744 ft | 373 kts | 309° |
| 2026-04-25 11:34 | 47.33498 | 18.22353 | 25304 ft | 371 kts | 309° |
| 2026-04-25 11:35 | 47.35159 | 18.19453 | 24872 ft | 369 kts | 309° |
| 2026-04-25 11:35 | 47.36813 | 18.16565 | 24437 ft | 367 kts | 309° |
| 2026-04-25 11:35 | 47.38456 | 18.13691 | 23982 ft | 366 kts | 309° |
| 2026-04-25 11:35 | 47.40088 | 18.10833 | 23591 ft | 362 kts | 309° |
| 2026-04-25 11:36 | 47.41702 | 18.08006 | 23142 ft | 360 kts | 309° |
| 2026-04-25 11:36 | 47.43314 | 18.05177 | 22684 ft | 358 kts | 309° |
| 2026-04-25 11:36 | 47.44914 | 18.02369 | 22266 ft | 356 kts | 309° |
| 2026-04-25 11:36 | 47.46501 | 17.99579 | 21811 ft | 354 kts | 309° |
| 2026-04-25 11:37 | 47.48079 | 17.96802 | 21395 ft | 352 kts | 309° |
| 2026-04-25 11:37 | 47.49650 | 17.94037 | 20978 ft | 349 kts | 309° |
| 2026-04-25 11:37 | 47.51209 | 17.91287 | 20520 ft | 348 kts | 309° |
| 2026-04-25 11:37 | 47.52755 | 17.88560 | 20113 ft | 346 kts | 309° |
| 2026-04-25 11:38 | 47.54304 | 17.85844 | 19705 ft | 343 kts | 310° |
| 2026-04-25 11:38 | 47.55871 | 17.83190 | 19261 ft | 342 kts | 310° |
| 2026-04-25 11:38 | 47.57424 | 17.80539 | 18858 ft | 339 kts | 310° |
| 2026-04-25 11:38 | 47.58949 | 17.77885 | 18426 ft | 338 kts | 309° |
| 2026-04-25 11:39 | 47.60457 | 17.75227 | 17995 ft | 336 kts | 309° |
| 2026-04-25 11:39 | 47.61954 | 17.72575 | 17611 ft | 333 kts | 309° |
| 2026-04-25 11:39 | 47.63420 | 17.69927 | 17152 ft | 331 kts | 306° |
| 2026-04-25 11:39 | 47.64610 | 17.67015 | 16664 ft | 331 kts | 295° |
| 2026-04-25 11:40 | 47.65396 | 17.63815 | 16254 ft | 330 kts | 285° |
| 2026-04-25 11:40 | 47.65864 | 17.60516 | 16079 ft | 327 kts | 283° |
| 2026-04-25 11:40 | 47.66305 | 17.57196 | 15673 ft | 330 kts | 283° |
| 2026-04-25 11:40 | 47.66727 | 17.53845 | 15133 ft | 332 kts | 282° |
| 2026-04-25 11:41 | 47.67150 | 17.50457 | 14533 ft | 336 kts | 282° |
| 2026-04-25 11:41 | 47.67577 | 17.47048 | 14047 ft | 336 kts | 282° |
| 2026-04-25 11:41 | 47.68005 | 17.43646 | 13603 ft | 335 kts | 283° |
| 2026-04-25 11:41 | 47.68431 | 17.40251 | 13140 ft | 334 kts | 283° |
| 2026-04-25 11:42 | 47.68856 | 17.36874 | 12712 ft | 332 kts | 283° |
| 2026-04-25 11:42 | 47.69278 | 17.33511 | 12269 ft | 331 kts | 283° |
| 2026-04-25 11:42 | 47.69699 | 17.30160 | 11833 ft | 330 kts | 283° |
| 2026-04-25 11:42 | 47.70116 | 17.26827 | 11452 ft | 327 kts | 283° |
| 2026-04-25 11:43 | 47.70530 | 17.23511 | 11055 ft | 325 kts | 283° |
| 2026-04-25 11:43 | 47.70942 | 17.20212 | 10532 ft | 326 kts | 283° |
| 2026-04-25 11:43 | 47.71377 | 17.16916 | 10167 ft | 323 kts | 283° |
| 2026-04-25 11:43 | 47.71797 | 17.13708 | 10131 ft | 309 kts | 282° |
| 2026-04-25 11:44 | 47.72183 | 17.10639 | 10124 ft | 296 kts | 282° |
| 2026-04-25 11:44 | 47.72543 | 17.07690 | 10057 ft | 284 kts | 282° |
| 2026-04-25 11:44 | 47.72884 | 17.04901 | 9968 ft | 274 kts | 282° |
| 2026-04-25 11:44 | 47.73222 | 17.02116 | 9671 ft | 272 kts | 282° |
| 2026-04-25 11:45 | 47.73553 | 16.99352 | 9362 ft | 271 kts | 282° |
| 2026-04-25 11:45 | 47.73884 | 16.96602 | 9043 ft | 270 kts | 282° |
| 2026-04-25 11:45 | 47.74212 | 16.93867 | 8735 ft | 268 kts | 281° |
| 2026-04-25 11:45 | 47.74603 | 16.91158 | 8301 ft | 270 kts | 288° |
| 2026-04-25 11:46 | 47.75319 | 16.88568 | 7943 ft | 270 kts | 297° |
| 2026-04-25 11:46 | 47.76324 | 16.86235 | 7712 ft | 265 kts | 304° |
| 2026-04-25 11:46 | 47.77401 | 16.84031 | 7427 ft | 262 kts | 305° |
| 2026-04-25 11:46 | 47.78477 | 16.81874 | 7031 ft | 258 kts | 305° |
| 2026-04-25 11:47 | 47.79565 | 16.79703 | 6417 ft | 266 kts | 305° |
| 2026-04-25 11:47 | 47.80670 | 16.77480 | 6093 ft | 266 kts | 305° |
| 2026-04-25 11:47 | 47.81743 | 16.75314 | 6043 ft | 254 kts | 304° |
| 2026-04-25 11:47 | 47.82599 | 16.73586 | 5885 ft | 250 kts | 304° |
| 2026-04-25 11:48 | 47.83673 | 16.71675 | 5547 ft | 253 kts | 313° |
| 2026-04-25 11:48 | 47.85062 | 16.70055 | 5023 ft | 253 kts | 325° |
| 2026-04-25 11:48 | 47.86591 | 16.68921 | 4714 ft | 237 kts | 333° |
| 2026-04-25 11:48 | 47.88071 | 16.68026 | 4493 ft | 226 kts | 335° |
| 2026-04-25 11:49 | 47.89550 | 16.67277 | 4265 ft | 223 kts | 339° |
| 2026-04-25 11:49 | 47.91021 | 16.66635 | 4042 ft | 219 kts | 340° |
| 2026-04-25 11:49 | 47.92483 | 16.66023 | 3764 ft | 218 kts | 340° |
| 2026-04-25 11:49 | 47.93929 | 16.65419 | 3521 ft | 214 kts | 340° |
| 2026-04-25 11:50 | 47.95352 | 16.64824 | 3276 ft | 211 kts | 341° |
| 2026-04-25 11:50 | 47.96745 | 16.64238 | 3031 ft | 203 kts | 341° |
| 2026-04-25 11:50 | 47.98064 | 16.63683 | 2773 ft | 192 kts | 341° |
| 2026-04-25 11:50 | 47.99304 | 16.63162 | 2528 ft | 179 kts | 340° |
| 2026-04-25 11:51 | 48.00460 | 16.62675 | 2283 ft | 166 kts | 340° |
| 2026-04-25 11:51 | 48.01506 | 16.62235 | 2063 ft | 149 kts | 340° |
| 2026-04-25 11:51 | 48.02474 | 16.61827 | 1899 ft | 142 kts | 340° |
| 2026-04-25 11:51 | 48.03423 | 16.61427 | 1707 ft | 143 kts | 340° |
| 2026-04-25 11:52 | 48.04386 | 16.61022 | 1521 ft | 144 kts | 340° |
| 2026-04-25 11:52 | 48.05353 | 16.60613 | 1330 ft | 144 kts | 340° |
| 2026-04-25 11:52 | 48.06320 | 16.60210 | 1122 ft | 144 kts | 342° |
| 2026-04-25 11:52 | 48.07281 | 16.59808 | 931 ft | 144 kts | 342° |
| 2026-04-25 11:53 | 48.08243 | 16.59388 | 744 ft | 143 kts | 343° |
| 2026-04-25 11:53 | 48.09197 | 16.58991 | 625 ft | 140 kts | 344° |
| 2026-04-25 11:53 | 48.09993 | 16.58658 | 614 ft | 104 kts | 344° |
| 2026-04-25 11:53 | 48.10518 | 16.58435 | 614 ft | 55 kts | 344° |
| 2026-04-25 11:54 | 48.10831 | 16.58303 | 614 ft | 39 kts | 344° |
| 2026-04-25 11:54 | 48.11010 | 16.58148 | 614 ft | 28 kts | 306° |
| 2026-04-25 11:54 | 48.11167 | 16.57686 | 614 ft | 19 kts | 296° |
| 2026-04-25 11:55 | 48.11218 | 16.57529 | 614 ft | 16 kts | 296° |
| 2026-04-25 11:55 | 48.11266 | 16.57383 | 614 ft | 15 kts | 296° |
| 2026-04-25 11:55 | 48.11311 | 16.57244 | 614 ft | 14 kts | 296° |
| 2026-04-25 11:55 | 48.11353 | 16.57114 | 614 ft | 13 kts | 296° |
| 2026-04-25 11:56 | 48.11393 | 16.56993 | 614 ft | 13 kts | 296° |
| 2026-04-25 11:56 | 48.11436 | 16.56886 | 614 ft | 12 kts | 329° |
| 2026-04-25 11:56 | 48.11476 | 16.56882 | 614 ft | 4 kts | 19° |
| 2026-04-25 11:56 | 48.11480 | 16.56885 | 614 ft | 0 kts | 22° |
| 2026-04-25 11:57 | 48.11484 | 16.56888 | 614 ft | 1 kts | 22° |
| 2026-04-25 11:57 | 48.11525 | 16.56912 | 614 ft | 11 kts | 21° |
| 2026-04-25 11:57 | 48.11585 | 16.56889 | 614 ft | 6 kts | 310° |
| 2026-04-25 11:58 | 48.11601 | 16.56879 | 614 ft | 1 kts | 5° |
| 2026-04-25 11:58 | 48.11632 | 16.56895 | 614 ft | 7 kts | 24° |
| 2026-04-25 11:58 | 48.11659 | 16.56914 | 614 ft | 4 kts | 25° |
| 2026-04-25 11:58 | 48.11664 | 16.56918 | 614 ft | 0 kts | 25° |